Atka, Alaska
Current Conditions -  °F | °C
As of 2:36 PM on Friday 31 Oct 2014 (Local Time) from PAAK Reporting Station
Scattered Clouds Scattered Clouds  
Wind Chill: 34°   Ceiling: Unl
Heat Index: 43°   Visibility: 10mi
Dew Point: 30°   Wind: 23mph
Humidity: 61%   Direction: 250°WSW
Pressure: 29.21"   Gusts: 40mph
Location:  52.19°N, 174.2°W
Report Text: PAAK 312336Z 25020G35KT 10SM FEW031 SCT046 SCT070 06/M01 A2921 RMK AO1
Loading
Personal Weather Stations






























Interactive Weather Map
Tropical Storm Tracking
New forecast layout! Learn more

10-Day Weather Forecast

Advertisements
Track Severe Weather on mobile